Accueil
METAR-TAF:

METAR-TAF

Aéroports :

Aéroport international de Goa

Panaji, Inde

latitude: 15-22-51N, longitude: 073-49-53E, altitude: 56 m

Observation

Le bulletin a été fait il y a 43 minutes, à 23:30 UTC
Vent 3 kt de nord-est
Température 26°C
Humidité 79%
Pression 1008 hPa
Visibilité: 4000 m
Quelques nuages à une hauteur de 9000 ft
brume

METAR: VOGO 272330Z 04003KT 4000 BR FEW090 26/22 Q1008 NOSIG

Heure: 05:43 (00:13 UTC)

Prévision

Le bulletin a été fait il y a 15 heures et 13 minutes, à 09:00 UTC
Prévision valable du 27 à 12 UTC au 27 à 21 UTC
Vent 10 kt de ouest/nord-ouest
Visibilité: 6000 m
Quelques nuages à une hauteur de 22000 ft
Evoluant progressivement
du 27 à 15 UTC au 27 à 17 UTC
Vent 6 kt de nord/nord-est
Visibilité: 5000 m
brume, brume sèche

TAF: VOGO 270900Z 2712/2721 30010KT 6000 FEW220 BECMG 2715/2717 03006KT 5000 BR HZ

Observations et prévisions météorologiques de plus de 4000 aéroports (messages METAR et TAF).

Les stations disponibles sont représentées par des disques jaunes et rouges sur la carte.

Passer la souris dessus pour voir le nom de la station.

Cliquer dessus pour voir les observations et prévisions météorologiques.

Pour changer de carte: cliquez sur les boutons verts avec une croix noire pour zoomer, sur le bouton vert avec un tiret pour effectuer un zoom arrière, ou sur les flèches vertes pour les cartes adjacentes.


METAR-TAF: